createdAt,value
2023-05-09T00:01:29.903Z,146317.25
2023-05-09T00:03:59.112Z,146297.78
2023-05-09T00:06:27.623Z,146302.66
2023-05-09T00:08:55.755Z,146292.91
2023-05-09T00:11:22.794Z,146308.72
2023-05-09T00:13:50.868Z,146283.19
2023-05-09T00:16:18.539Z,146319.69
2023-05-09T00:18:45.595Z,146344.03
2023-05-09T00:21:12.746Z,146319.69
2023-05-09T00:23:39.878Z,146272.19
2023-05-09T00:26:06.948Z,146295.31
2023-05-09T00:28:34.074Z,146284.38
2023-05-09T00:31:01.114Z,146269.78
2023-05-09T00:33:28.173Z,146261.25
2023-05-09T00:35:55.423Z,146278.31
2023-05-09T00:38:23.460Z,146251.53
2023-05-09T00:40:50.545Z,146262.47
2023-05-09T00:43:17.762Z,146294.13
2023-05-09T00:45:45.695Z,146286.84
2023-05-09T00:48:13.612Z,146305.09
2023-05-09T00:50:41.179Z,146314.84
2023-05-09T00:53:08.991Z,146257.59
2023-05-09T00:55:36.116Z,146317.25
2023-05-09T00:58:04.043Z,146326.97
2023-05-09T01:00:31.351Z,146324.56
2023-05-09T01:02:58.631Z,146362.28
2023-05-09T01:05:37.484Z,146375.69
2023-05-09T01:08:31.431Z,146380.56
2023-05-09T01:11:06.406Z,146365.97
2023-05-09T01:14:06.183Z,146361.09
2023-05-09T01:16:52.076Z,146341.63
2023-05-09T01:20:10.619Z,146337.97
2023-05-09T01:22:43.011Z,146333.09
2023-05-09T01:25:13.336Z,146317.25
2023-05-09T01:27:53.500Z,146317.25
2023-05-09T01:30:20.814Z,146303.84
2023-05-09T01:32:51.212Z,146298.97
2023-05-09T01:35:22.457Z,146289.25
2023-05-09T01:37:50.916Z,146277.06
2023-05-09T01:40:21.359Z,146290.47
2023-05-09T01:42:57.660Z,146258.81
2023-05-09T01:45:26.915Z,146274.66
2023-05-09T01:47:54.246Z,146312.38
2023-05-09T01:50:22.945Z,146291.72
2023-05-09T01:52:53.517Z,146337.97
2023-05-09T01:55:22.689Z,146337.97
2023-05-09T01:57:50.768Z,146323.38
2023-05-09T02:00:19.328Z,146308.72
2023-05-09T02:02:47.006Z,146306.31
2023-05-09T02:05:17.715Z,146285.59
2023-05-09T02:07:47.415Z,146295.31
2023-05-09T02:10:15.730Z,146289.25
2023-05-09T02:12:42.848Z,146298.97
2023-05-09T02:15:10.205Z,146305.09
2023-05-09T02:17:42.188Z,146306.31
2023-05-09T02:20:13.313Z,146317.25
2023-05-09T02:22:42.316Z,146309.97
2023-05-09T02:25:11.856Z,146322.13
2023-05-09T02:27:40.407Z,146317.25
2023-05-09T02:30:12.739Z,146306.31
2023-05-09T02:32:41.554Z,146312.38
2023-05-09T02:35:10.311Z,146326.97
2023-05-09T02:37:38.116Z,146283.19
2023-05-09T02:40:08.973Z,146375.69
2023-05-09T02:42:36.361Z,146375.69
2023-05-09T02:45:03.625Z,146375.69
2023-05-09T02:47:31.296Z,146396.41
2023-05-09T02:49:58.956Z,146406.16
2023-05-09T02:52:26.158Z,146422.00
2023-05-09T02:54:53.196Z,146422.00
2023-05-09T02:57:21.117Z,146348.91
2023-05-09T02:59:48.129Z,146424.47
2023-05-09T03:02:15.603Z,146385.44
2023-05-09T03:04:43.349Z,146404.91
2023-05-09T03:07:10.392Z,146408.56
2023-05-09T03:09:39.288Z,146411.06
2023-05-09T03:12:08.150Z,146363.50
2023-05-09T03:14:36.443Z,146397.63
2023-05-09T03:17:03.490Z,146396.41
2023-05-09T03:19:34.791Z,146390.31
2023-05-09T03:22:01.988Z,146375.69
2023-05-09T03:24:31.851Z,146373.28
2023-05-09T03:26:58.924Z,146370.84
2023-05-09T03:29:26.056Z,146314.84
2023-05-09T03:31:54.446Z,146356.22
2023-05-09T03:34:22.044Z,146358.63
2023-05-09T03:36:49.173Z,146368.38
2023-05-09T03:39:16.436Z,146380.56
2023-05-09T03:41:46.603Z,146395.16
2023-05-09T03:44:13.964Z,146401.28
2023-05-09T03:46:41.045Z,146395.16
2023-05-09T03:49:08.520Z,146413.47
2023-05-09T03:51:36.980Z,146431.75
2023-05-09T03:54:08.131Z,146437.88
2023-05-09T03:56:35.901Z,146443.94
2023-05-09T03:59:03.048Z,146442.72
2023-05-09T04:01:30.878Z,146482.94
2023-05-09T04:04:00.227Z,146493.88
2023-05-09T04:06:29.988Z,146510.94
2023-05-09T04:08:58.218Z,146461.00
2023-05-09T04:11:25.578Z,146526.75
2023-05-09T04:13:52.630Z,146535.28
2023-05-09T04:16:27.342Z,146546.22
2023-05-09T04:18:54.508Z,146565.75
2023-05-09T04:21:21.546Z,146586.44
2023-05-09T04:23:51.400Z,146604.72
2023-05-09T04:26:22.926Z,146614.47
2023-05-09T04:28:52.890Z,146616.91
2023-05-09T04:31:20.279Z,146587.66
2023-05-09T04:33:51.377Z,146593.78
2023-05-09T04:36:18.412Z,146591.31
2023-05-09T04:38:46.418Z,146562.09
2023-05-09T04:41:17.972Z,146523.09
2023-05-09T04:43:44.968Z,146551.09
2023-05-09T04:46:12.323Z,146568.16
2023-05-09T04:48:39.485Z,146541.38
2023-05-09T04:51:06.518Z,146605.94
2023-05-09T04:53:34.269Z,146588.91
2023-05-09T04:56:01.367Z,146580.38
2023-05-09T04:58:29.466Z,146599.84
2023-05-09T05:00:57.181Z,146609.59
2023-05-09T05:03:24.186Z,146612.03
2023-05-09T05:05:51.389Z,146616.91
2023-05-09T05:08:18.502Z,146604.72
2023-05-09T05:10:46.023Z,146582.78
2023-05-09T05:13:15.959Z,146660.75
2023-05-09T05:15:46.099Z,146662.00
2023-05-09T05:18:14.037Z,146688.81
2023-05-09T05:20:42.058Z,146731.50
2023-05-09T05:23:09.446Z,146724.19
2023-05-09T05:25:36.594Z,146738.84
2023-05-09T05:28:03.802Z,146780.28
2023-05-09T05:30:33.453Z,146787.56
2023-05-09T05:33:01.772Z,146811.97
2023-05-09T05:35:29.260Z,146832.69
2023-05-09T05:37:57.274Z,146838.75
2023-05-09T05:40:24.479Z,146870.47
2023-05-09T05:42:54.255Z,146824.13
2023-05-09T05:45:21.493Z,146872.91
2023-05-09T05:47:52.865Z,146881.47
2023-05-09T05:50:20.812Z,146871.72
2023-05-09T05:52:48.322Z,146909.50
2023-05-09T05:55:17.910Z,146894.88
2023-05-09T05:57:45.719Z,146933.88
2023-05-09T06:00:15.465Z,146960.72
2023-05-09T06:02:55.162Z,146940.00
2023-05-09T06:05:28.031Z,146933.88
2023-05-09T06:07:55.185Z,146924.13
2023-05-09T06:10:22.373Z,146919.25
2023-05-09T06:12:49.520Z,146899.75
2023-05-09T06:15:16.750Z,147004.69
2023-05-09T06:17:46.996Z,146979.00
2023-05-09T06:20:14.046Z,147013.19
2023-05-09T06:22:41.071Z,147031.47
2023-05-09T06:25:11.199Z,147048.56
2023-05-09T06:27:38.598Z,147094.91
2023-05-09T06:30:23.929Z,147068.06
2023-05-09T06:32:52.341Z,147033.94
2023-05-09T06:35:19.494Z,147043.69
2023-05-09T06:37:48.439Z,147046.16
2023-05-09T06:40:16.713Z,147051.03
2023-05-09T06:42:44.612Z,147058.31
2023-05-09T06:45:11.916Z,147009.56
2023-05-09T06:47:39.075Z,147087.63
2023-05-09T06:50:06.793Z,147054.69
2023-05-09T06:52:33.910Z,147074.22
2023-05-09T06:55:00.988Z,147094.91
2023-05-09T06:57:28.155Z,147059.56
2023-05-09T06:59:55.347Z,147055.91
2023-05-09T07:02:22.409Z,147027.84
2023-05-09T07:04:49.598Z,147031.47
2023-05-09T07:07:17.237Z,147008.31
2023-05-09T07:09:44.261Z,147002.22
2023-05-09T07:12:11.282Z,147026.59
2023-05-09T07:14:38.319Z,147037.59
2023-05-09T07:17:21.143Z,147075.41
2023-05-09T07:19:49.716Z,147070.53
2023-05-09T07:22:16.887Z,147090.03
2023-05-09T07:24:44.484Z,147110.81
2023-05-09T07:27:11.577Z,147140.06
2023-05-09T07:29:38.631Z,147092.50
2023-05-09T07:32:06.171Z,147142.53
2023-05-09T07:34:33.302Z,147164.50
2023-05-09T07:37:00.310Z,147160.84
2023-05-09T07:39:27.298Z,147086.38
2023-05-09T07:41:54.328Z,147177.88
2023-05-09T07:44:21.507Z,147226.72
2023-05-09T07:46:48.552Z,147259.72
2023-05-09T07:49:15.667Z,147290.22
2023-05-09T07:51:42.765Z,147319.50
2023-05-09T07:54:10.162Z,147331.72
2023-05-09T07:56:37.283Z,147326.84
2023-05-09T07:59:04.465Z,147311.00
2023-05-09T08:01:31.677Z,147314.63
2023-05-09T08:03:58.874Z,147329.31
2023-05-09T08:06:26.437Z,147295.13
2023-05-09T08:08:53.423Z,147330.53
2023-05-09T08:11:20.502Z,147276.81
2023-05-09T08:13:48.120Z,147343.97
2023-05-09T08:16:17.296Z,147354.94
2023-05-09T08:18:45.038Z,147385.47
2023-05-09T08:21:12.135Z,147365.94
2023-05-09T08:23:40.527Z,147357.38
2023-05-09T08:26:07.619Z,147412.34
2023-05-09T08:28:34.668Z,147439.22
2023-05-09T08:31:02.221Z,147422.09
2023-05-09T08:33:29.252Z,147398.91
2023-05-09T08:35:56.388Z,147406.19
2023-05-09T08:38:24.360Z,147392.75
2023-05-09T08:40:51.687Z,147353.72
2023-05-09T08:43:20.156Z,147341.50
2023-05-09T08:45:51.918Z,147397.66
2023-05-09T08:48:19.354Z,147429.41
2023-05-09T08:50:46.942Z,147535.72
2023-05-09T08:53:14.587Z,147605.34
2023-05-09T08:55:41.720Z,147749.56
2023-05-09T08:58:13.495Z,147695.78
2023-05-09T09:00:41.585Z,147694.53
2023-05-09T09:03:08.808Z,147720.25
2023-05-09T09:05:41.848Z,147703.06
2023-05-09T09:08:10.841Z,147737.38
2023-05-09T09:10:47.081Z,147786.22
2023-05-09T09:13:15.480Z,147745.88
2023-05-09T09:15:45.151Z,147685.97
2023-05-09T09:18:18.074Z,147590.69
2023-05-09T09:20:48.509Z,147659.13
2023-05-09T09:23:20.216Z,147649.31
2023-05-09T09:25:48.335Z,147617.53
2023-05-09T09:28:15.582Z,147725.13
2023-05-09T09:30:48.894Z,147797.25
2023-05-09T09:33:22.688Z,147897.50
2023-05-09T09:35:51.557Z,147950.09
2023-05-09T09:38:20.052Z,147978.22
2023-05-09T09:40:56.840Z,147988.00
2023-05-09T09:43:31.417Z,147893.81
2023-05-09T09:46:03.100Z,147913.38
2023-05-09T09:48:33.719Z,147896.25
2023-05-09T09:51:11.357Z,147904.81
2023-05-09T09:53:43.228Z,147901.13
2023-05-09T09:56:10.993Z,147879.16
2023-05-09T09:58:38.148Z,147907.28
2023-05-09T10:01:09.949Z,147930.50
2023-05-09T10:03:39.153Z,147928.03
2023-05-09T10:06:13.236Z,148019.78
2023-05-09T10:08:41.068Z,148095.63
2023-05-09T10:11:09.442Z,148143.31
2023-05-09T10:13:38.364Z,148112.72
2023-05-09T10:16:06.079Z,148077.28
2023-05-09T10:18:34.355Z,148072.41
2023-05-09T10:21:03.641Z,147896.25
2023-05-09T10:23:32.718Z,147871.81
2023-05-09T10:26:12.354Z,147798.47
2023-05-09T10:28:41.892Z,147824.16
2023-05-09T10:31:27.838Z,147950.09
2023-05-09T10:33:58.703Z,147999.03
2023-05-09T10:36:26.331Z,148013.69
2023-05-09T10:38:54.730Z,147981.88
2023-05-09T10:41:23.543Z,147932.91
2023-05-09T10:43:51.006Z,147930.50
2023-05-09T10:46:18.605Z,147849.78
2023-05-09T10:48:47.845Z,147876.69
2023-05-09T10:51:16.261Z,147864.44
2023-05-09T10:53:45.889Z,147788.69
2023-05-09T10:56:33.273Z,147712.84
2023-05-09T10:59:00.651Z,147522.28
2023-05-09T11:01:34.591Z,147497.84
2023-05-09T11:04:08.897Z,147484.34
2023-05-09T11:06:42.158Z,147448.97
2023-05-09T11:09:28.782Z,147441.63
2023-05-09T11:12:01.705Z,147455.06
2023-05-09T11:14:33.246Z,147473.38
2023-05-09T11:17:02.890Z,147648.09
2023-05-09T11:19:42.925Z,147734.91
2023-05-09T11:22:27.781Z,147820.47
2023-05-09T11:25:01.350Z,147842.47
2023-05-09T11:27:29.215Z,147838.81
2023-05-09T11:30:04.481Z,147819.22
2023-05-09T11:32:32.845Z,147898.69
2023-05-09T11:35:12.407Z,147888.94
2023-05-09T11:37:45.455Z,147884.03
2023-05-09T11:40:14.718Z,147820.47
2023-05-09T11:42:44.774Z,147820.47
2023-05-09T11:45:13.729Z,147742.25
2023-05-09T11:47:41.523Z,147803.34
2023-05-09T11:50:10.209Z,147788.69
2023-05-09T11:52:38.387Z,147737.38
2023-05-09T11:55:12.688Z,147722.66
2023-05-09T11:57:42.057Z,147739.78
2023-05-09T12:00:10.441Z,147715.31
2023-05-09T12:02:38.304Z,147731.22
2023-05-09T12:05:10.879Z,147704.28
2023-05-09T12:07:39.424Z,147730.00
2023-05-09T12:10:08.635Z,147725.13
2023-05-09T12:12:37.243Z,147788.69
2023-05-09T12:15:07.839Z,147695.78
2023-05-09T12:17:35.679Z,147717.78
2023-05-09T12:20:06.805Z,147754.44
2023-05-09T12:22:34.777Z,147772.78
2023-05-09T12:25:07.182Z,147891.34
2023-05-09T12:27:38.685Z,147876.69
2023-05-09T12:30:15.909Z,147860.81
2023-05-09T12:32:43.588Z,147818.00
2023-05-09T12:35:11.157Z,147788.69
2023-05-09T12:37:39.056Z,147698.19
2023-05-09T12:40:12.227Z,147612.66
2023-05-09T12:42:39.697Z,147661.53
2023-05-09T12:45:10.847Z,147693.31
2023-05-09T12:47:38.951Z,147756.91
2023-05-09T12:50:07.317Z,147826.56
2023-05-09T12:52:38.122Z,147830.25
2023-05-09T12:55:13.320Z,147796.00
2023-05-09T12:57:41.836Z,147869.34
2023-05-09T13:00:10.220Z,147959.88
2023-05-09T13:02:39.839Z,147995.34
2023-05-09T13:05:06.976Z,148023.47
2023-05-09T13:07:40.768Z,148167.81
2023-05-09T13:10:21.184Z,148183.75
2023-05-09T13:12:49.165Z,148226.56
2023-05-09T13:15:17.489Z,148197.22
2023-05-09T13:17:44.779Z,148270.63
2023-05-09T13:20:11.964Z,148325.69
2023-05-09T13:22:39.223Z,148292.66
2023-05-09T13:25:06.968Z,148358.78
2023-05-09T13:27:34.328Z,148320.81
2023-05-09T13:30:01.508Z,148431.03
2023-05-09T13:32:28.577Z,148437.13
2023-05-09T13:34:55.740Z,148394.28
2023-05-09T13:37:22.847Z,148434.69
2023-05-09T13:39:49.905Z,148508.16
2023-05-09T13:42:19.091Z,148424.88
2023-05-09T13:44:46.338Z,148347.78
2023-05-09T13:47:13.375Z,148284.09
2023-05-09T13:49:40.438Z,148236.34
2023-05-09T13:52:08.192Z,148351.41
2023-05-09T13:54:35.356Z,148336.69
2023-05-09T13:57:05.395Z,148336.69
2023-05-09T13:59:32.500Z,148382.03
2023-05-09T14:02:00.529Z,148289.00
2023-05-09T14:04:28.822Z,148276.72
2023-05-09T14:06:56.179Z,148150.72
2023-05-09T14:09:23.331Z,148065.03
2023-05-09T14:11:51.569Z,148049.16
2023-05-09T14:14:19.823Z,147963.53
2023-05-09T14:16:47.804Z,147950.09
2023-05-09T14:19:15.374Z,147969.66
2023-05-09T14:21:48.700Z,147945.22
2023-05-09T14:24:16.491Z,147921.94
2023-05-09T14:26:44.086Z,147813.13
2023-05-09T14:29:11.307Z,147852.25
2023-05-09T14:31:38.430Z,147808.22
2023-05-09T14:34:06.154Z,147742.25
2023-05-09T14:36:33.192Z,147678.66
2023-05-09T14:39:00.259Z,147671.31
2023-05-09T14:41:27.339Z,147639.53
2023-05-09T14:43:54.445Z,147639.53
2023-05-09T14:46:21.545Z,147601.66
2023-05-09T14:48:48.543Z,147588.22
2023-05-09T14:51:15.529Z,147616.31
2023-05-09T14:53:42.589Z,147549.16
2023-05-09T14:56:11.458Z,147589.44
2023-05-09T14:58:38.680Z,147574.78
2023-05-09T15:01:05.745Z,147563.81
2023-05-09T15:03:32.968Z,147556.47
2023-05-09T15:06:00.150Z,147573.59
2023-05-09T15:08:27.255Z,147554.06
2023-05-09T15:10:54.313Z,147562.56
2023-05-09T15:13:21.620Z,147552.78
2023-05-09T15:15:48.895Z,147507.59
2023-05-09T15:18:17.012Z,147561.34
2023-05-09T15:20:44.333Z,147514.94
2023-05-09T15:23:12.982Z,147516.16
2023-05-09T15:25:42.413Z,147475.84
2023-05-09T15:28:09.417Z,147485.59
2023-05-09T15:30:38.734Z,147477.06
2023-05-09T15:33:06.242Z,147431.88
2023-05-09T15:35:33.396Z,147444.09
2023-05-09T15:38:00.501Z,147400.09
2023-05-09T15:40:28.162Z,147474.59
2023-05-09T15:42:55.191Z,147495.41
2023-05-09T15:45:22.405Z,147507.59
2023-05-09T15:47:49.485Z,147497.84
2023-05-09T15:50:16.921Z,147467.28
2023-05-09T15:52:44.093Z,147411.06
2023-05-09T15:55:12.776Z,147468.50
2023-05-09T15:57:39.874Z,147462.41
2023-05-09T16:00:07.434Z,147446.50
2023-05-09T16:02:39.596Z,147373.25
2023-05-09T16:05:06.913Z,147397.66
2023-05-09T16:07:35.677Z,147368.34
2023-05-09T16:10:03.349Z,147402.56
2023-05-09T16:12:32.630Z,147400.09
2023-05-09T16:15:00.087Z,147334.19
2023-05-09T16:17:27.468Z,147343.97
2023-05-09T16:19:55.606Z,147387.88
2023-05-09T16:22:22.653Z,147336.63
2023-05-09T16:24:49.678Z,147285.34
2023-05-09T16:27:17.403Z,147335.41
2023-05-09T16:29:44.473Z,147308.53
2023-05-09T16:32:11.569Z,147324.41
2023-05-09T16:34:38.745Z,147256.06
2023-05-09T16:37:06.121Z,147303.66
2023-05-09T16:39:33.100Z,147260.97
2023-05-09T16:42:00.149Z,147302.47
2023-05-09T16:44:27.401Z,147301.19
2023-05-09T16:46:54.387Z,147300.00
2023-05-09T16:49:21.348Z,147265.84
2023-05-09T16:51:48.300Z,147307.34
2023-05-09T16:54:15.481Z,147304.88
2023-05-09T16:56:42.540Z,147269.47
2023-05-09T16:59:09.557Z,147247.53
2023-05-09T17:01:36.615Z,147246.28
2023-05-09T17:04:06.550Z,147236.47
2023-05-09T17:06:34.142Z,147229.19
2023-05-09T17:09:01.201Z,147224.28
2023-05-09T17:11:29.021Z,147163.25
2023-05-09T17:13:56.124Z,147170.59
2023-05-09T17:16:23.206Z,147174.25
2023-05-09T17:18:51.913Z,147133.97
2023-05-09T17:21:20.147Z,147201.13
2023-05-09T17:23:47.296Z,147148.63
2023-05-09T17:26:14.512Z,147141.28
2023-05-09T17:28:41.479Z,147105.94
2023-05-09T17:31:08.544Z,147133.97
2023-05-09T17:33:35.751Z,147082.75
2023-05-09T17:36:02.735Z,147102.25
2023-05-09T17:38:30.105Z,147097.38
2023-05-09T17:40:57.366Z,147076.63
2023-05-09T17:43:24.637Z,147031.47
2023-05-09T17:45:52.323Z,147087.63
2023-05-09T17:48:19.773Z,147118.09
2023-05-09T17:50:46.801Z,147114.47
2023-05-09T17:53:13.884Z,147105.94
2023-05-09T17:55:42.249Z,147060.78
2023-05-09T17:58:09.385Z,147068.06
2023-05-09T18:00:36.537Z,146992.47
2023-05-09T18:03:04.115Z,147007.09
2023-05-09T18:05:31.253Z,147021.72
2023-05-09T18:08:00.740Z,147038.81
2023-05-09T18:10:28.722Z,146957.03
2023-05-09T18:12:55.972Z,146971.66
2023-05-09T18:15:24.732Z,147011.97
2023-05-09T18:17:53.688Z,147007.09
2023-05-09T18:20:21.003Z,147018.09
2023-05-09T18:22:48.217Z,146960.72
2023-05-09T18:25:15.401Z,146981.47
2023-05-09T18:27:42.493Z,146977.78
2023-05-09T18:30:09.875Z,146931.47
2023-05-09T18:32:36.882Z,146950.97
2023-05-09T18:35:04.285Z,146936.34
2023-05-09T18:37:31.267Z,146950.97
2023-05-09T18:39:58.274Z,146924.13
2023-05-09T18:42:25.294Z,146871.72
2023-05-09T18:44:52.454Z,146836.34
2023-05-09T18:47:19.597Z,146848.56
2023-05-09T18:49:47.464Z,146875.34
2023-05-09T18:52:15.116Z,146890.00
2023-05-09T18:54:42.188Z,146897.28
2023-05-09T18:57:09.815Z,146891.22
2023-05-09T18:59:36.904Z,146875.34
2023-05-09T19:02:03.918Z,146868.03
2023-05-09T19:04:31.066Z,146890.00
2023-05-09T19:06:59.337Z,146877.78
2023-05-09T19:09:26.706Z,146842.44
2023-05-09T19:11:53.962Z,146847.31
2023-05-09T19:14:20.962Z,146764.41
2023-05-09T19:16:48.470Z,146793.69
2023-05-09T19:19:15.676Z,146836.34
2023-05-09T19:21:42.962Z,146804.66
2023-05-09T19:24:10.114Z,146787.56
2023-05-09T19:26:37.204Z,146821.72
2023-05-09T19:29:07.842Z,146837.56
2023-05-09T19:31:37.375Z,146832.69
2023-05-09T19:34:04.377Z,146792.44
2023-05-09T19:36:31.518Z,146787.56
2023-05-09T19:38:58.582Z,146807.06
2023-05-09T19:41:25.944Z,146794.91
2023-05-09T19:43:53.291Z,146751.00
2023-05-09T19:46:20.280Z,146755.88
2023-05-09T19:48:47.395Z,146757.13
2023-05-09T19:51:15.381Z,146799.78
2023-05-09T19:53:42.414Z,146794.91
2023-05-09T19:56:09.840Z,146785.16
2023-05-09T19:58:37.014Z,146755.88
2023-05-09T20:01:07.238Z,146790.03
2023-05-09T20:03:38.600Z,146770.50
2023-05-09T20:06:07.648Z,146772.94
2023-05-09T20:08:35.175Z,146777.81
2023-05-09T20:11:03.158Z,146763.19
2023-05-09T20:13:30.493Z,146733.94
2023-05-09T20:15:58.958Z,146719.31
2023-05-09T20:18:26.736Z,146716.91
2023-05-09T20:20:54.712Z,146718.09
2023-05-09T20:23:21.807Z,146704.66
2023-05-09T20:25:48.808Z,146729.06
2023-05-09T20:28:20.089Z,146703.44
2023-05-09T20:30:47.200Z,146694.91
2023-05-09T20:33:15.351Z,146696.09
2023-05-09T20:35:43.506Z,146672.97
2023-05-09T20:38:11.679Z,146682.69
2023-05-09T20:40:38.679Z,146675.41
2023-05-09T20:43:05.680Z,146660.75
2023-05-09T20:45:32.807Z,146646.13
2023-05-09T20:48:01.576Z,146669.28
2023-05-09T20:50:28.619Z,146655.88
2023-05-09T20:52:55.704Z,146651.00
2023-05-09T20:55:22.833Z,146613.25
2023-05-09T20:57:49.808Z,146655.88
2023-05-09T21:00:17.264Z,146636.41
2023-05-09T21:02:44.645Z,146642.47
2023-05-09T21:05:11.692Z,146618.13
2023-05-09T21:07:38.678Z,146582.78
2023-05-09T21:10:06.141Z,146581.56
2023-05-09T21:12:33.149Z,146607.19
2023-05-09T21:15:00.221Z,146597.44
2023-05-09T21:17:27.277Z,146607.19
2023-05-09T21:19:54.368Z,146543.81
2023-05-09T21:22:21.472Z,146597.44
2023-05-09T21:24:48.499Z,146605.94
2023-05-09T21:27:15.515Z,146599.84
2023-05-09T21:29:42.483Z,146585.22
2023-05-09T21:32:13.231Z,146604.72
2023-05-09T21:34:40.291Z,146607.19
2023-05-09T21:37:07.270Z,146597.44
2023-05-09T21:39:34.385Z,146575.50
2023-05-09T21:42:01.367Z,146587.66
2023-05-09T21:44:28.344Z,146592.56
2023-05-09T21:46:55.433Z,146593.78
2023-05-09T21:49:22.460Z,146581.56
2023-05-09T21:51:49.493Z,146565.75
2023-05-09T21:54:16.616Z,146590.09
2023-05-09T21:56:43.647Z,146615.72
2023-05-09T21:59:10.833Z,146602.31
2023-05-09T22:01:38.025Z,146613.25
2023-05-09T22:04:05.691Z,146590.09
2023-05-09T22:06:33.137Z,146594.97
2023-05-09T22:09:00.131Z,146590.09
2023-05-09T22:11:27.194Z,146594.97
2023-05-09T22:13:55.211Z,146588.91
2023-05-09T22:16:22.710Z,146580.38
2023-05-09T22:18:49.778Z,146560.88
2023-05-09T22:21:16.795Z,146568.16
2023-05-09T22:23:43.859Z,146582.78
2023-05-09T22:26:10.879Z,146519.47
2023-05-09T22:28:37.879Z,146560.88
2023-05-09T22:31:06.633Z,146563.31
2023-05-09T22:33:34.399Z,146568.16
2023-05-09T22:36:01.650Z,146548.69
2023-05-09T22:38:28.699Z,146542.63
2023-05-09T22:40:55.692Z,146509.69
2023-05-09T22:43:24.172Z,146461.00
2023-05-09T22:45:52.717Z,146422.00
2023-05-09T22:48:19.747Z,146397.63
2023-05-09T22:50:46.723Z,146401.28
2023-05-09T22:53:13.846Z,146407.34
2023-05-09T22:55:41.310Z,146353.78
2023-05-09T22:58:08.341Z,146379.34
2023-05-09T23:00:35.737Z,146364.75
2023-05-09T23:03:05.668Z,146365.97
2023-05-09T23:05:32.734Z,146344.03
2023-05-09T23:07:59.759Z,146309.97
2023-05-09T23:10:26.949Z,146300.25
2023-05-09T23:12:53.956Z,146291.72
2023-05-09T23:15:21.051Z,146303.84
2023-05-09T23:17:48.089Z,146318.50
2023-05-09T23:20:15.958Z,146308.72
2023-05-09T23:22:43.163Z,146318.50
2023-05-09T23:25:10.341Z,146329.44
2023-05-09T23:27:40.366Z,146307.50
2023-05-09T23:30:10.799Z,146267.34
2023-05-09T23:32:38.066Z,146329.44
2023-05-09T23:35:05.849Z,146334.31
2023-05-09T23:37:34.278Z,146317.25
2023-05-09T23:40:01.301Z,146261.25
2023-05-09T23:42:28.292Z,146336.75
2023-05-09T23:44:55.282Z,146302.66
2023-05-09T23:47:22.268Z,146326.97
2023-05-09T23:49:49.279Z,146318.50
2023-05-09T23:52:16.458Z,146320.91
2023-05-09T23:54:43.448Z,146295.31
2023-05-09T23:57:10.425Z,146295.31
2023-05-09T23:59:37.535Z,146291.72
